Huvudsida
METAR-TAF:

METAR-TAF

Flygplatser :

Ipoh, Malaysia

latitud: 04-34-09N, longitud: 101-05-35E, höjd: 40 m

Aktuellt väderrapport

Denna rapport gjordes för 56 minuter sedan, klockan 12:00 UTC
Vind 4 kt från syd/sydväst, varierande mellan sydost och sydväst
Temperatur 30°C
Fuktighet 75%
Tryck 1008 hPa
Sikt 10 km eller mer
Få moln på en höjd av 3000 ft
Spridda moln på en höjd av 14000 ft
Brutna moln på en höjd av 28000 ft

METAR: WMKI 221200Z 20004KT 140V230 9999 FEW030 SCT140 BKN280 30/25 Q1008

Tid: 20:56 (12:56 UTC)

Väderprognos

Denna rapport gjordes för 1 timme och 56 minuter sedan, klockan 11:00 UTC
Prognos gäller från 22 kl. 12 UTC till 23 kl. 12 UTC
Vind 2 kt varierande vindriktning
Sikt 10 km eller mer
Få moln på en höjd av 2000 ft
Blir
från 23 kl. 06 UTC till 23 kl. 07 UTC
Vind 5 kt från syd
Få moln på en höjd av 1700 ft, Cumulonimbus.

TAF: WMKI 221100Z 2212/2312 VRB02KT 9999 FEW020 BECMG 2306/2307 19005KT FEW017CB

Aktuella väderrapporter och prognoser från 4000 flygplatser (METAR- och TAF-rapporter).

De tillgängliga stationerna syns som gula och röda prickar på kartan.

För musen över prickarna för att se namnen på stationerna.

Klicka sedan för att få väderrapporter och prognoser.

För att ändra kartan: Klicka på de gröna knapparna med ett svart kors på för att zooma in; den gröna knappen med ett streck på för att zooma ut; eller på de gröna pilarna för angränsande kartor.


METAR-TAF: